createdAt,value
2022-09-22T01:58:21.411Z,23.90
2022-09-22T02:47:44.660Z,23.70
2022-09-22T02:50:16.637Z,23.70
2022-09-22T02:52:45.356Z,23.70
2022-09-22T05:24:20.915Z,23.60
2022-09-22T05:26:49.597Z,23.60
2022-09-22T05:29:18.431Z,23.60
2022-09-22T05:31:47.526Z,23.60
2022-09-22T05:34:16.594Z,23.60
2022-09-22T05:36:45.414Z,23.70
2022-09-22T05:39:13.959Z,23.60
2022-09-22T05:41:43.968Z,23.70
2022-09-22T05:44:12.520Z,23.70
2022-09-22T05:46:41.089Z,23.70
2022-09-22T05:51:39.673Z,23.70
2022-09-22T05:54:10.007Z,24.00
2022-09-22T05:56:40.851Z,23.70
2022-09-22T05:59:10.856Z,23.80
2022-09-22T06:01:39.653Z,23.50
2022-09-22T06:04:08.450Z,23.70
2022-09-22T06:06:37.015Z,23.60
2022-09-22T06:09:05.967Z,23.80
2022-09-22T06:11:34.976Z,23.60
2022-09-22T06:14:03.660Z,23.60
2022-09-22T06:16:34.039Z,23.70
2022-09-22T06:19:03.181Z,23.70
2022-09-22T06:21:31.856Z,23.70
2022-09-22T06:24:00.464Z,23.70
2022-09-22T06:26:29.231Z,23.60
2022-09-22T06:28:58.620Z,23.60
2022-09-22T06:31:27.320Z,23.60
2022-09-22T06:33:57.662Z,23.50
2022-09-22T06:36:31.514Z,23.60
2022-09-22T06:39:00.343Z,23.60
2022-09-22T06:41:31.628Z,23.40
2022-09-22T06:44:05.469Z,23.50
2022-09-22T06:46:35.466Z,23.60
2022-09-22T06:49:05.714Z,23.50
2022-09-22T06:51:37.029Z,23.60
2022-09-22T06:54:07.708Z,23.50
2022-09-22T06:56:39.961Z,23.50
2022-09-22T06:59:11.122Z,23.50
2022-09-22T07:01:40.683Z,23.50
2022-09-22T07:04:12.558Z,23.60
2022-09-22T07:06:42.795Z,23.60
2022-09-22T07:09:12.477Z,23.50
2022-09-22T07:11:41.122Z,23.60
2022-09-22T07:14:12.729Z,23.60
2022-09-22T07:16:41.779Z,23.50
2022-09-22T07:19:11.842Z,23.60
2022-09-22T07:21:40.768Z,23.50
2022-09-22T07:24:09.572Z,23.60
2022-09-22T07:26:41.010Z,23.60
2022-09-22T07:29:13.380Z,23.50
2022-09-22T07:31:43.450Z,23.60
2022-09-22T07:34:14.249Z,23.50
2022-09-22T07:36:42.926Z,23.50
2022-09-22T07:39:12.223Z,23.60
2022-09-22T07:41:43.766Z,23.50
2022-09-22T07:44:31.774Z,23.50
2022-09-22T07:47:00.801Z,23.50
2022-09-22T07:49:31.173Z,23.50
2022-09-22T07:52:00.216Z,23.50
2022-09-22T07:54:29.134Z,23.50
2022-09-22T07:56:59.420Z,23.50
2022-09-22T07:59:28.543Z,23.50
2022-09-22T08:01:57.408Z,23.50
2022-09-22T08:04:26.657Z,23.50
2022-09-22T08:06:57.098Z,23.50
2022-09-22T08:09:26.745Z,23.50
2022-09-22T08:11:56.282Z,23.50
2022-09-22T08:14:24.941Z,23.50
2022-09-22T08:16:54.482Z,23.50
2022-09-22T08:19:25.068Z,23.50
2022-09-22T08:21:55.082Z,23.40
2022-09-22T08:24:25.087Z,23.40
2022-09-22T08:26:56.335Z,23.50
2022-09-22T08:29:25.911Z,23.40
2022-09-22T08:31:54.635Z,23.40
2022-09-22T08:34:23.312Z,23.40
2022-09-22T08:36:51.833Z,23.50
2022-09-22T08:39:20.644Z,23.40
2022-09-22T08:42:11.524Z,23.40
2022-09-22T08:44:52.702Z,23.40
2022-09-22T08:47:42.477Z,23.40
2022-09-22T08:50:44.523Z,23.40
2022-09-22T08:53:19.808Z,23.40
2022-09-22T08:55:58.438Z,23.40
2022-09-22T08:58:43.081Z,23.50
2022-09-22T09:01:30.552Z,23.40
2022-09-22T09:04:18.723Z,23.50
2022-09-22T09:06:54.723Z,23.50
2022-09-22T09:09:44.531Z,23.50
2022-09-22T09:12:47.525Z,23.50
2022-09-22T09:16:00.761Z,23.50
2022-09-22T09:18:33.494Z,23.50
2022-09-22T09:21:07.692Z,23.50
2022-09-22T09:26:35.658Z,23.50
2022-09-22T09:29:09.148Z,23.50
2022-09-22T09:31:44.413Z,23.50
2022-09-22T09:34:17.932Z,23.50
2022-09-22T09:36:52.944Z,23.50
2022-09-22T09:39:29.177Z,23.50
2022-09-22T09:41:58.587Z,23.50
2022-09-22T09:44:30.621Z,23.50
2022-09-22T09:47:11.672Z,23.50
2022-09-22T09:49:40.585Z,23.40
2022-09-22T09:52:14.066Z,23.40
2022-09-22T09:54:44.428Z,23.40
2022-09-22T09:57:15.397Z,23.50
2022-09-22T10:00:03.636Z,23.40
2022-09-22T10:03:04.612Z,23.70
2022-09-22T10:05:37.735Z,23.40
2022-09-22T10:08:17.554Z,23.50
2022-09-22T10:10:47.320Z,23.50
2022-09-22T10:13:35.916Z,23.50
2022-09-22T10:16:20.887Z,23.60
2022-09-22T10:18:53.088Z,23.60
2022-09-22T10:21:23.805Z,23.60
2022-09-22T10:23:54.281Z,23.60
2022-09-22T10:26:27.397Z,23.60
2022-09-22T10:29:19.243Z,23.60
2022-09-22T10:32:15.058Z,23.60
2022-09-22T10:34:47.335Z,23.60
2022-09-22T10:37:18.819Z,23.60
2022-09-22T10:39:52.018Z,23.60
2022-09-22T10:42:33.533Z,23.70
2022-09-22T10:45:07.140Z,23.50
2022-09-22T10:47:53.110Z,23.50
2022-09-22T10:50:50.459Z,23.50
2022-09-22T10:53:55.009Z,23.50
2022-09-22T10:56:31.371Z,23.50
2022-09-22T10:59:29.213Z,23.60
2022-09-22T11:02:18.422Z,23.50
2022-09-22T11:04:58.296Z,23.50
2022-09-22T11:08:15.898Z,23.50
2022-09-22T11:11:13.381Z,23.50
2022-09-22T11:13:51.192Z,23.50
2022-09-22T11:16:43.024Z,23.50
2022-09-22T11:19:34.504Z,23.60
2022-09-22T11:22:34.273Z,23.50
2022-09-22T11:25:21.548Z,23.50
2022-09-22T11:28:09.324Z,23.50
2022-09-22T11:30:45.575Z,23.60
2022-09-22T11:33:38.831Z,23.50
2022-09-22T11:36:21.073Z,23.50
2022-09-22T11:39:13.755Z,23.50
2022-09-22T11:41:48.913Z,23.50
2022-09-22T11:44:44.716Z,23.50
2022-09-22T11:48:01.440Z,23.50
2022-09-22T11:51:00.436Z,23.50
2022-09-22T11:53:57.375Z,23.60
2022-09-22T11:56:41.959Z,23.60
2022-09-22T11:59:32.009Z,23.50
2022-09-22T12:02:06.204Z,23.60
2022-09-22T12:04:42.092Z,23.60
2022-09-22T12:07:19.410Z,23.60
2022-09-22T12:09:52.892Z,23.30
2022-09-22T12:12:25.057Z,23.60
2022-09-22T12:15:03.569Z,23.60
2022-09-22T12:17:42.223Z,23.60
2022-09-22T12:20:34.536Z,23.60
2022-09-22T12:23:24.575Z,23.70
2022-09-22T12:25:56.388Z,23.80
2022-09-22T12:28:28.175Z,23.80
2022-09-22T12:31:06.206Z,23.90
2022-09-22T12:33:38.022Z,23.70
2022-09-22T12:36:08.027Z,24.00
2022-09-22T12:38:36.697Z,24.00
2022-09-22T12:41:06.103Z,24.00
2022-09-22T12:43:36.712Z,24.00
2022-09-22T12:46:24.705Z,24.00
2022-09-22T12:48:53.508Z,24.10
2022-09-22T12:51:39.825Z,24.00
2022-09-22T12:54:37.799Z,24.00
2022-09-22T12:57:30.586Z,24.00
2022-09-22T13:00:32.153Z,23.70
2022-09-22T13:03:30.348Z,24.00
2022-09-22T13:06:00.950Z,24.00
2022-09-22T13:09:10.551Z,24.00
2022-09-22T13:12:27.129Z,24.00
2022-09-22T13:15:24.959Z,24.00
2022-09-22T13:17:54.005Z,24.10
2022-09-22T13:20:31.073Z,24.00
2022-09-22T13:23:06.245Z,24.00
2022-09-22T13:25:35.036Z,24.10
2022-09-22T13:30:36.216Z,24.00
2022-09-22T13:33:05.765Z,24.10
2022-09-22T13:35:40.096Z,24.10
2022-09-22T13:38:11.886Z,24.10
2022-09-22T13:40:46.038Z,24.10
2022-09-22T13:43:26.675Z,24.10
2022-09-22T13:45:56.744Z,24.00
2022-09-22T13:48:26.530Z,24.00
2022-09-22T13:51:00.616Z,24.00
2022-09-22T13:53:29.532Z,24.00
2022-09-22T13:55:58.692Z,24.00
2022-09-22T13:58:36.497Z,23.90
2022-09-22T14:01:14.769Z,23.90
2022-09-22T14:03:44.298Z,23.90
2022-09-22T14:06:17.418Z,23.90
2022-09-22T14:08:48.615Z,23.80
2022-09-22T14:11:20.663Z,23.80
2022-09-22T14:14:01.038Z,23.60
2022-09-22T14:16:37.646Z,23.80
2022-09-22T14:19:10.103Z,23.80
2022-09-22T14:21:51.875Z,23.90
2022-09-22T14:24:20.782Z,23.80
2022-09-22T14:26:51.383Z,23.80
2022-09-22T14:29:25.227Z,23.90
2022-09-22T14:32:00.520Z,24.00
2022-09-22T14:34:34.353Z,24.10
2022-09-22T14:37:18.515Z,24.00
2022-09-22T14:39:47.435Z,24.00
2022-09-22T14:42:23.551Z,24.00
2022-09-22T14:44:53.911Z,24.00
2022-09-22T14:47:27.642Z,24.00
2022-09-22T14:50:11.988Z,24.00
2022-09-22T14:53:01.249Z,24.00
2022-09-22T14:55:36.051Z,23.90
2022-09-22T14:58:08.574Z,23.90
2022-09-22T15:00:55.433Z,23.90
2022-09-22T15:03:29.325Z,23.80
2022-09-22T15:06:09.281Z,23.80
2022-09-22T15:08:41.278Z,23.80
2022-09-22T15:11:10.529Z,23.80
2022-09-22T15:13:41.499Z,23.80
2022-09-22T15:16:39.575Z,23.70
2022-09-22T15:19:13.275Z,23.60
2022-09-22T15:21:50.851Z,23.80
2022-09-22T15:24:27.041Z,23.80
2022-09-22T15:26:57.367Z,23.80
2022-09-22T15:29:26.146Z,23.70
2022-09-22T15:31:56.080Z,23.80
2022-09-22T15:34:24.593Z,23.80
2022-09-22T15:36:56.506Z,23.70
2022-09-22T15:39:26.879Z,23.80
2022-09-22T15:41:55.750Z,23.80
2022-09-22T15:44:24.438Z,23.70
2022-09-22T15:46:54.922Z,23.80
2022-09-22T15:49:27.190Z,23.70
2022-09-22T15:51:56.837Z,23.70
2022-09-22T15:54:27.568Z,23.70
2022-09-22T15:56:58.276Z,23.70
2022-09-22T15:59:32.478Z,23.70
2022-09-22T16:02:01.520Z,23.60
2022-09-22T16:04:33.720Z,23.60
2022-09-22T16:07:08.445Z,23.70
2022-09-22T16:09:38.850Z,23.60
2022-09-22T16:12:11.176Z,23.60
2022-09-22T16:14:41.849Z,23.60
2022-09-22T16:17:10.421Z,23.60
2022-09-22T16:19:38.978Z,23.50
2022-09-22T16:22:07.537Z,23.50
2022-09-22T16:24:37.652Z,23.50
2022-09-22T16:27:07.568Z,23.50
2022-09-22T16:29:37.588Z,23.50
2022-09-22T16:32:06.703Z,23.50
2022-09-22T16:34:35.988Z,23.60
2022-09-22T16:37:05.024Z,23.60
2022-09-22T16:39:33.700Z,23.70
2022-09-22T16:42:03.952Z,23.60
2022-09-22T16:44:32.505Z,23.60
2022-09-22T16:47:01.712Z,23.60
2022-09-22T16:49:31.787Z,23.60
2022-09-22T16:52:00.828Z,23.70
2022-09-22T16:54:29.869Z,23.60
2022-09-22T16:56:58.562Z,23.70
2022-09-22T16:59:28.918Z,23.60
2022-09-22T17:01:57.736Z,23.60
2022-09-22T17:04:26.280Z,23.60
2022-09-22T17:06:54.961Z,23.60
2022-09-22T17:09:23.640Z,23.60
2022-09-22T17:11:53.757Z,23.50
2022-09-22T17:14:23.305Z,23.50
2022-09-22T17:16:56.650Z,23.40
2022-09-22T17:19:27.799Z,23.40
2022-09-22T17:21:57.371Z,23.20
2022-09-22T17:24:29.163Z,23.30
2022-09-22T17:27:00.018Z,23.30
2022-09-22T17:29:32.887Z,23.20
2022-09-22T17:32:06.033Z,23.20
2022-09-22T17:34:37.085Z,23.20
2022-09-22T17:37:06.612Z,23.30
2022-09-22T17:39:35.408Z,23.20
2022-09-22T17:42:04.208Z,23.30
2022-09-22T17:44:33.762Z,23.20
2022-09-22T17:47:21.376Z,23.20
2022-09-22T17:50:07.446Z,23.20
2022-09-22T17:52:52.450Z,23.20
2022-09-22T17:55:25.615Z,23.20
2022-09-22T17:57:56.436Z,23.20
2022-09-22T18:00:26.412Z,23.30
2022-09-22T18:02:56.977Z,23.30
2022-09-22T18:05:27.852Z,23.30
2022-09-22T18:07:57.956Z,23.20
2022-09-22T18:10:32.439Z,23.30
2022-09-22T18:13:02.649Z,23.30
2022-09-22T18:15:31.333Z,23.40
2022-09-22T18:18:01.578Z,23.20
2022-09-22T18:20:30.249Z,23.30
2022-09-22T18:23:00.431Z,23.30
2022-09-22T18:25:29.169Z,23.30
2022-09-22T18:27:58.213Z,23.30
2022-09-22T18:30:28.454Z,23.30
2022-09-22T18:32:57.014Z,23.40
2022-09-22T18:35:28.933Z,23.40
2022-09-22T18:37:57.509Z,23.40
2022-09-22T18:41:00.866Z,23.50
2022-09-22T18:43:30.502Z,23.50
2022-09-22T18:45:59.417Z,23.50
2022-09-22T18:48:28.102Z,23.60
2022-09-22T18:50:58.220Z,23.60
2022-09-22T18:53:27.392Z,23.60
2022-09-22T18:55:55.940Z,23.70
2022-09-22T18:58:24.984Z,23.70
2022-09-22T19:00:54.505Z,23.70
2022-09-22T19:03:24.747Z,23.70
2022-09-22T19:05:53.310Z,23.70
2022-09-22T19:08:26.317Z,23.70
2022-09-22T19:10:55.238Z,23.70
2022-09-22T19:13:25.948Z,23.70
2022-09-22T19:15:57.952Z,23.60
2022-09-22T19:18:27.153Z,23.60
2022-09-22T19:20:56.074Z,23.60
2022-09-22T19:23:26.342Z,23.50
2022-09-22T19:25:55.013Z,23.50
2022-09-22T19:28:23.798Z,23.50
2022-09-22T19:30:52.625Z,23.60
2022-09-22T19:33:21.532Z,23.60
2022-09-22T19:35:50.683Z,23.70
2022-09-22T19:38:19.479Z,23.60
2022-09-22T19:40:50.148Z,23.70
2022-09-22T19:43:18.884Z,23.70
2022-09-22T19:45:47.563Z,23.70
2022-09-22T19:48:16.380Z,23.70
2022-09-22T19:50:45.773Z,23.70
2022-09-22T19:53:14.927Z,23.70
2022-09-22T19:55:44.328Z,23.70
2022-09-22T19:58:14.337Z,23.70
2022-09-22T20:00:46.729Z,23.80
2022-09-22T20:03:15.450Z,23.70
2022-09-22T20:05:44.691Z,23.70
2022-09-22T20:08:16.017Z,23.70
2022-09-22T20:10:45.539Z,23.70
2022-09-22T20:13:29.946Z,23.70
2022-09-22T20:15:58.646Z,23.60
2022-09-22T20:18:27.785Z,23.60
2022-09-22T20:20:57.664Z,23.50
2022-09-22T20:23:26.701Z,23.50
2022-09-22T20:25:55.987Z,23.50
2022-09-22T20:28:26.594Z,23.40
2022-09-22T20:30:55.642Z,23.50
2022-09-22T20:33:25.744Z,23.50
2022-09-22T20:35:56.232Z,23.40
2022-09-22T20:38:25.388Z,23.40
2022-09-22T20:40:54.908Z,23.50
2022-09-22T20:43:25.395Z,23.50
2022-09-22T20:46:00.848Z,23.50
2022-09-22T20:48:30.321Z,23.40
2022-09-22T20:51:02.891Z,23.40
2022-09-22T20:53:34.407Z,23.40
2022-09-22T20:56:06.797Z,23.50
2022-09-22T20:58:42.441Z,23.50
2022-09-22T21:01:14.685Z,23.50
2022-09-22T21:03:44.486Z,23.50
2022-09-22T21:06:16.051Z,23.50
2022-09-22T21:09:03.202Z,23.50
2022-09-22T21:11:32.734Z,23.50
2022-09-22T21:14:05.897Z,23.50
2022-09-22T21:16:40.127Z,23.60
2022-09-22T21:19:09.455Z,23.40
2022-09-22T21:21:38.497Z,23.50
2022-09-22T21:24:10.052Z,23.40
2022-09-22T21:26:39.088Z,23.40
2022-09-22T21:29:10.413Z,23.60
2022-09-22T21:31:39.457Z,23.40
2022-09-22T21:34:08.736Z,23.40
2022-09-22T21:36:37.655Z,23.40
2022-09-22T21:39:06.701Z,23.40
2022-09-22T21:41:36.104Z,23.40
2022-09-22T21:44:05.902Z,23.30
2022-09-22T21:46:41.006Z,23.30
2022-09-22T21:49:11.260Z,23.40
2022-09-22T21:51:44.190Z,23.30
2022-09-22T21:54:17.983Z,23.30
2022-09-22T21:56:47.152Z,23.30
2022-09-22T21:59:16.912Z,23.30
2022-09-22T22:01:47.060Z,23.40
2022-09-22T22:04:17.972Z,23.30
2022-09-22T22:06:47.308Z,23.30
2022-09-22T22:09:18.976Z,23.40
2022-09-22T22:11:50.153Z,23.30
2022-09-22T22:14:20.755Z,23.40
2022-09-22T22:16:54.118Z,23.50
2022-09-22T22:19:27.195Z,23.50
2022-09-22T22:21:56.644Z,23.40
2022-09-22T22:24:31.919Z,23.40
2022-09-22T22:27:06.277Z,23.50
2022-09-22T22:29:36.538Z,23.40
2022-09-22T22:32:09.128Z,23.40
2022-09-22T22:34:38.042Z,23.40
2022-09-22T22:37:10.208Z,23.40
2022-09-22T22:39:39.004Z,23.10
2022-09-22T22:42:08.532Z,23.40
2022-09-22T22:44:37.227Z,23.40
2022-09-22T22:47:08.652Z,23.90
2022-09-22T22:49:37.685Z,23.10
2022-09-22T22:52:06.970Z,23.30
2022-09-22T22:54:36.042Z,23.40
2022-09-22T22:57:04.935Z,23.40
2022-09-22T22:59:33.969Z,23.20
